Terminal Aerodrome Forecast
Issued by NWS Spokane, WA

Home | Current Version | Previous Version | Text Only | Print | Product List | Glossary On
Versions: 1 2 3 4 5 6 7 8 9 10 11 12 13 14 15 16 17 18 19 20 21 22 23
000
FTUS46 KOTX 020520
TAFGEG
TAF
KGEG 020520Z 0206/0306 20011KT P6SM SCT150 BKN200
     FM021200 24006KT P6SM FEW150
     FM021900 28008KT P6SM FEW080
     FM030100 18003KT P6SM FEW150=

USA.gov is the U.S. government's official web portal to all federal, state and local government web resources and services.